地図

経路データ

SID SEASON NUMBER BASIN SUBBASIN NAME ISO_TIME NATURE LAT LON WMO_WIND WMO_PRES WMO_AGENCY TRACK_TYPE DIST2LAND LANDFALL IFLAG USA_AGENCY USA_ATCF_ID USA_LAT USA_LON USA_RECORD USA_STATUS USA_WIND USA_PRES USA_SSHS USA_R34_NE USA_R34_SE USA_R34_SW USA_R34_NW USA_R50_NE USA_R50_SE USA_R50_SW USA_R50_NW USA_R64_NE USA_R64_SE USA_R64_SW USA_R64_NW USA_POCI USA_ROCI USA_RMW USA_EYE TOKYO_LAT TOKYO_LON TOKYO_GRADE TOKYO_WIND TOKYO_PRES TOKYO_R50_DIR TOKYO_R50_LONG TOKYO_R50_SHORT TOKYO_R30_DIR TOKYO_R30_LONG TOKYO_R30_SHORT TOKYO_LAND CMA_LAT CMA_LON CMA_CAT CMA_WIND CMA_PRES HKO_LAT HKO_LON HKO_CAT HKO_WIND HKO_PRES NEWDELHI_LAT NEWDELHI_LON NEWDELHI_GRADE NEWDELHI_WIND NEWDELHI_PRES NEWDELHI_CI NEWDELHI_DP NEWDELHI_POCI REUNION_LAT REUNION_LON REUNION_TYPE REUNION_WIND REUNION_PRES REUNION_TNUM REUNION_CI REUNION_RMW REUNION_R34_NE REUNION_R34_SE REUNION_R34_SW REUNION_R34_NW REUNION_R50_NE REUNION_R50_SE REUNION_R50_SW REUNION_R50_NW REUNION_R64_NE REUNION_R64_SE REUNION_R64_SW REUNION_R64_NW BOM_LAT BOM_LON BOM_TYPE BOM_WIND BOM_PRES BOM_TNUM BOM_CI BOM_RMW BOM_R34_NE BOM_R34_SE BOM_R34_SW BOM_R34_NW BOM_R50_NE BOM_R50_SE BOM_R50_SW BOM_R50_NW BOM_R64_NE BOM_R64_SE BOM_R64_SW BOM_R64_NW BOM_ROCI BOM_POCI BOM_EYE BOM_POS_METHOD BOM_PRES_METHOD NADI_LAT NADI_LON NADI_CAT NADI_WIND NADI_PRES WELLINGTON_LAT WELLINGTON_LON WELLINGTON_WIND WELLINGTON_PRES DS824_LAT DS824_LON DS824_STAGE DS824_WIND DS824_PRES TD9636_LAT TD9636_LON TD9636_STAGE TD9636_WIND TD9636_PRES TD9635_LAT TD9635_LON TD9635_WIND TD9635_PRES TD9635_ROCI NEUMANN_LAT NEUMANN_LON NEUMANN_CLASS NEUMANN_WIND NEUMANN_PRES MLC_LAT MLC_LON MLC_CLASS MLC_WIND MLC_PRES USA_GUST BOM_GUST BOM_GUST_PER REUNION_GUST REUNION_GUST_PER USA_SEAHGT USA_SEARAD_NE USA_SEARAD_SE USA_SEARAD_SW USA_SEARAD_NW STORM_SPEED STORM_DIR
1982152N13264 1982 32 EP MM NOT_NAMED 1982-05-31 12:00:00 NR 13.4000 -95.6000 main 265 265 O_____________ jtwc_ep EP021982 13.4000 -95.6000 30 -1 3 94
1982152N13264 1982 32 EP MM NOT_NAMED 1982-05-31 15:00:00 NR 13.3900 -95.4500 main 271 268 P_____________ EP021982 13.3900 -95.4500 30 -1 3 90
1982152N13264 1982 32 EP MM NOT_NAMED 1982-05-31 18:00:00 NR 13.4000 -95.3000 main 275 275 O_____________ jtwc_ep EP021982 13.4000 -95.3000 30 -1 3 80
1982152N13264 1982 32 EP MM NOT_NAMED 1982-05-31 21:00:00 NR 13.4425 -95.1500 main 279 273 P_____________ EP021982 13.4425 -95.1500 30 -1 3 71
1982152N13264 1982 32 EP MM NOT_NAMED 1982-06-01 00:00:00 NR 13.5000 -95.0000 main 278 278 O_____________ jtwc_ep EP021982 13.5000 -95.0000 30 -1 3 71
1982152N13264 1982 32 EP MM NOT_NAMED 1982-06-01 03:00:00 NR 13.5425 -94.8500 main 279 264 P_____________ EP021982 13.5425 -94.8500 28 -1 3 71
1982152N13264 1982 32 EP MM NOT_NAMED 1982-06-01 06:00:00 NR 13.6000 -94.7000 main 264 240 O_____________ jtwc_ep EP021982 13.6000 -94.7000 27 -1 3 64
1982152N13264 1982 32 EP MM NOT_NAMED 1982-06-01 09:00:00 NR 13.6925 -94.5350 main 240 225 P_____________ EP021982 13.6925 -94.5350 26 -1 4 56
1982152N13264 1982 32 EP MM NOT_NAMED 1982-06-01 12:00:00 NR 13.8000 -94.4000 main 225 209 O_____________ jtwc_ep EP021982 13.8000 -94.4000 25 -1 3 45
1982152N13264 1982 32 EP MM NOT_NAMED 1982-06-01 15:00:00 NR 13.9000 -94.3200 main 209 201 P_____________ EP021982 13.9000 -94.3200 24 -1 2 27
1982152N13264 1982 32 EP MM NOT_NAMED 1982-06-01 18:00:00 NR 14.0000 -94.3000 main 201 193 O_____________ jtwc_ep EP021982 14.0000 -94.3000 24 -1 2 7
1982152N13264 1982 32 EP MM NOT_NAMED 1982-06-01 21:00:00 NR 14.1150 -94.3200 main 193 186 P_____________ EP021982 14.1150 -94.3200 24 -1 2 333
1982152N13264 1982 32 EP MM NOT_NAMED 1982-06-02 00:00:00 NR 14.2000 -94.4000 main 193 193 O_____________ jtwc_ep EP021982 14.2000 -94.4000 24 -1 2 294
1982152N13264 1982 32 EP MM NOT_NAMED 1982-06-02 03:00:00 NR 14.2150 -94.5500 main 209 209 P_____________ EP021982 14.2150 -94.5500 25 -1 3 270
1982152N13264 1982 32 EP MM NOT_NAMED 1982-06-02 06:00:00 NR 14.2000 -94.7000 main 215 211 O_____________ jtwc_ep EP021982 14.2000 -94.7000 27 -1 2 270
1982152N13264 1982 32 EP MM NOT_NAMED 1982-06-02 09:00:00 NR 14.2150 -94.7800 main 211 211 P_____________ EP021982 14.2150 -94.7800 28 -1 1 270
1982152N13264 1982 32 EP MM NOT_NAMED 1982-06-02 12:00:00 NR 14.2000 -94.8000 main 211 211 O_____________ jtwc_ep EP021982 14.2000 -94.8000 29 -1 1 0
1982152N13264 1982 32 EP MM NOT_NAMED 1982-06-02 15:00:00 NR 14.1000 -94.7725 main 222 222 P_____________ EP021982 14.1000 -94.7725 28 -1 2 153
1982152N13264 1982 32 EP MM NOT_NAMED 1982-06-02 18:00:00 NR 14.0000 -94.7000 main 232 224 O_____________ jtwc_ep EP021982 14.0000 -94.7000 27 -1 2 131
1982152N13264 1982 32 EP MM NOT_NAMED 1982-06-02 21:00:00 NR 13.9625 -94.6075 main 224 217 P_____________ EP021982 13.9625 -94.6075 26 -1 2 90
1982152N13264 1982 32 EP MM NOT_NAMED 1982-06-03 00:00:00 NR 14.0000 -94.5000 main 217 201 O_____________ jtwc_ep EP021982 14.0000 -94.5000 25 -1 3 53
1982152N13264 1982 32 EP MM NOT_NAMED 1982-06-03 03:00:00 NR 14.1200 -94.3925 main 201 178 P_____________ EP021982 14.1200 -94.3925 25 -1 4 33
1982152N13264 1982 32 EP MM NOT_NAMED 1982-06-03 06:00:00 NR 14.3000 -94.3000 main 178 155 O_____________ jtwc_ep EP021982 14.3000 -94.3000 25 -1 4 22
1982152N13264 1982 32 EP MM NOT_NAMED 1982-06-03 09:00:00 NR 14.5000 -94.2350 main 155 139 P_____________ EP021982 14.5000 -94.2350 25 -1 4 13
1982152N13264 1982 32 EP MM NOT_NAMED 1982-06-03 12:00:00 NR 14.7000 -94.2000 main 139 131 O_____________ jtwc_ep EP021982 14.7000 -94.2000 25 -1 4 8
1982152N13264 1982 32 EP MM NOT_NAMED 1982-06-03 15:00:00 NR 14.8500 -94.1775 main 131 113 P_____________ EP021982 14.8500 -94.1775 25 -1 3 0
1982152N13264 1982 32 EP MM NOT_NAMED 1982-06-03 18:00:00 NR 15.0000 -94.2000 main 113 95 O_____________ jtwc_ep EP021982 15.0000 -94.2000 25 -1 4 345
1982152N13264 1982 32 EP MM NOT_NAMED 1982-06-03 21:00:00 NR 15.2000 -94.2775 main 95 79 P_____________ EP021982 15.2000 -94.2775 25 -1 4 334
1982152N13264 1982 32 EP MM NOT_NAMED 1982-06-04 00:00:00 NR 15.4000 -94.4000 main 79 59 O_____________ jtwc_ep EP021982 15.4000 -94.4000 25 -1 5 325
1982152N13264 1982 32 EP MM NOT_NAMED 1982-06-04 03:00:00 NR 15.5725 -94.5425 main 59 55 P_____________ EP021982 15.5725 -94.5425 25 -1 4 316
1982152N13264 1982 32 EP MM NOT_NAMED 1982-06-04 06:00:00 NR 15.7000 -94.7000 main 55 44 O_____________ jtwc_ep EP021982 15.7000 -94.7000 25 -1 4 303
1982152N13264 1982 32 EP MM NOT_NAMED 1982-06-04 09:00:00 NR 15.7675 -94.8525 main 44 44 P_____________ EP021982 15.7675 -94.8525 25 -1 3 289
1982152N13264 1982 32 EP MM NOT_NAMED 1982-06-04 12:00:00 NR 15.8000 -95.0000 main 44 O_____________ jtwc_ep EP021982 15.8000 -95.0000 25 -1 3 283

IBTrACS Databaseについて

本データベースは、米国NOAAが公開する1842年以降の世界の熱帯低気圧のベストトラックデータアーカイブInternational Best Track Archive for Climate Stewardship (IBTrACS)を、ウェブで閲覧しやすい形式に変換したものです。

最終更新日:2021-10-21